Time;durP1;ratioP1;P1;durP2;ratioP2;P2;SDS_P1;SDS_P2;PMS_P1;PMS_P2;Temp;Humidity;BMP_temperature;BMP_pressure;BME280_temperature;BME280_humidity;BME280_pressure;Samples;Min_cycle;Max_cycle;Signal;HPM_P1;HPM_P2
2021/05/29 00:02:13;;;;;;;18.52;14.57;;;18.60;79.40;;;;;;5033579;28;20083;-89
2021/05/29 00:04:39;;;;;;;17.00;14.07;;;18.60;79.90;;;;;;5044216;28;20025;-89
2021/05/29 00:07:05;;;;;;;20.97;14.37;;;18.50;80.20;;;;;;5041634;28;20021;-89
2021/05/29 00:09:31;;;;;;;23.45;15.15;;;18.40;80.50;;;;;;5036132;28;20029;-90
2021/05/29 00:11:58;;;;;;;22.70;13.70;;;18.40;80.80;;;;;;5043898;28;20037;-88
2021/05/29 00:14:24;;;;;;;18.48;14.50;;;18.40;81.10;;;;;;5043441;28;20072;-87
2021/05/29 00:16:50;;;;;;;16.98;13.38;;;18.40;81.30;;;;;;5023630;28;20096;-88
2021/05/29 00:19:16;;;;;;;21.75;13.55;;;18.30;81.50;;;;;;5040222;28;20022;-88
2021/05/29 00:21:42;;;;;;;22.38;14.13;;;18.30;81.80;;;;;;5026696;28;20036;-89
2021/05/29 00:24:08;;;;;;;16.73;14.35;;;18.20;82.00;;;;;;5047982;28;20052;-89
2021/05/29 00:26:34;;;;;;;21.92;14.75;;;18.20;82.30;;;;;;5044604;28;20036;-88
2021/05/29 00:29:00;;;;;;;18.10;14.40;;;18.20;82.50;;;;;;5032246;28;20033;-87
2021/05/29 00:31:26;;;;;;;20.63;15.30;;;18.20;82.70;;;;;;5051241;28;20025;-89
2021/05/29 00:33:52;;;;;;;16.17;14.43;;;18.20;82.80;;;;;;5034088;28;20013;-88
2021/05/29 00:36:19;;;;;;;17.48;14.15;;;18.10;83.00;;;;;;5050765;28;20025;-88
2021/05/29 00:38:48;;;;;;;20.55;14.65;;;18.10;83.10;;;;;;5048504;28;20018;-88
2021/05/29 00:41:17;;;;;;;18.88;14.05;;;18.10;83.30;;;;;;5038605;28;20021;-88
2021/05/29 00:43:45;;;;;;;20.83;14.63;;;18.10;83.60;;;;;;5038720;28;20029;-88
2021/05/29 00:46:11;;;;;;;15.68;14.07;;;18.00;83.80;;;;;;5039044;28;20024;-89
2021/05/29 00:48:38;;;;;;;18.58;13.75;;;18.00;84.30;;;;;;5037597;28;20406;-88
2021/05/29 00:51:05;;;;;;;28.52;14.52;;;17.90;84.70;;;;;;5037602;28;20044;-88
2021/05/29 00:53:32;;;;;;;;;;;17.80;84.80;;;;;;5037286;28;20033;-87
2021/05/29 00:55:59;;;;;;;20.58;13.90;;;17.80;83.90;;;;;;5036095;28;19913;-90
2021/05/29 00:58:26;;;;;;;17.45;13.80;;;17.80;85.20;;;;;;5036236;28;20033;-89
2021/05/29 01:00:53;;;;;;;18.42;14.20;;;17.80;85.70;;;;;;5033554;28;20045;-87
2021/05/29 01:03:19;;;;;;;23.00;15.52;;;17.80;85.90;;;;;;5026203;28;20478;-86
2021/05/29 01:05:46;;;;;;;23.30;15.45;;;17.80;85.90;;;;;;5036569;28;20101;-86
2021/05/29 01:08:13;;;;;;;21.00;15.43;;;17.90;85.70;;;;;;5026712;28;20014;-87
2021/05/29 01:10:40;;;;;;;18.00;14.13;;;17.90;85.40;;;;;;5036232;28;20033;-86
2021/05/29 01:13:08;;;;;;;21.52;14.65;;;18.00;85.40;;;;;;5038013;28;20060;-90
2021/05/29 01:15:38;;;;;;;26.05;17.00;;;18.00;85.30;;;;;;5039770;28;20071;-91
2021/05/29 01:18:06;;;;;;;22.75;14.63;;;18.00;85.40;;;;;;5025063;28;20029;-89
2021/05/29 01:20:33;;;;;;;17.63;14.93;;;18.00;85.50;;;;;;5025796;28;20366;-89
2021/05/29 01:22:59;;;;;;;22.33;15.93;;;18.00;85.20;;;;;;5040448;28;20021;-87
2021/05/29 01:25:30;;;;;;;22.98;15.60;;;18.10;84.60;;;;;;5041328;28;20021;-87
2021/05/29 01:28:05;;;;;;;19.20;15.55;;;18.20;85.00;;;;;;5058101;28;20030;-87
2021/05/29 01:30:38;;;;;;;21.85;14.82;;;18.30;84.80;;;;;;5060382;28;20040;-87
2021/05/29 01:33:05;;;;;;;18.35;15.77;;;18.40;84.60;;;;;;5059348;28;20048;-84
2021/05/29 01:35:34;;;;;;;24.08;16.52;;;18.50;84.40;;;;;;5041976;28;20009;-87
2021/05/29 01:38:00;;;;;;;26.77;15.43;;;18.50;84.00;;;;;;5053407;28;20055;-87
2021/05/29 01:40:26;;;;;;;22.88;14.90;;;18.50;84.00;;;;;;5042559;28;20029;-89
2021/05/29 01:42:52;;;;;;;21.88;15.02;;;18.60;83.80;;;;;;5047767;28;20018;-87
2021/05/29 01:45:18;;;;;;;20.48;16.48;;;18.60;82.90;;;;;;4996328;28;20037;-88
2021/05/29 01:47:45;;;;;;;23.92;16.48;;;18.70;82.40;;;;;;5041610;28;20049;-85
2021/05/29 01:50:16;;;;;;;17.85;15.52;;;18.70;81.80;;;;;;5041613;28;20021;-87
2021/05/29 01:52:46;;;;;;;25.75;15.90;;;18.80;81.80;;;;;;5044224;28;20095;-88
2021/05/29 01:55:12;;;;;;;22.20;14.90;;;18.80;81.60;;;;;;5053307;28;20021;-84
2021/05/29 01:57:38;;;;;;;18.45;14.77;;;18.80;81.50;;;;;;5056489;28;20068;-88
2021/05/29 02:00:05;;;;;;;24.77;15.40;;;18.90;81.50;;;;;;5050915;28;20025;-87
2021/05/29 02:02:31;;;;;;;20.27;14.33;;;18.90;81.30;;;;;;5042547;28;20025;-87
2021/05/29 02:04:57;;;;;;;18.35;14.02;;;18.90;81.30;;;;;;5040404;28;20263;-88
2021/05/29 02:07:25;;;;;;;18.17;14.63;;;18.90;80.90;;;;;;5037084;28;20025;-85
2021/05/29 02:09:51;;;;;;;19.25;15.15;;;19.00;80.90;;;;;;5036724;28;20079;-87
2021/05/29 02:12:18;;;;;;;19.15;14.00;;;19.00;80.80;;;;;;5036956;28;20041;-89
2021/05/29 02:14:44;;;;;;;17.98;15.05;;;19.00;80.60;;;;;;5022599;28;20025;-89
2021/05/29 02:17:10;;;;;;;22.20;17.10;;;19.00;80.60;;;;;;5037499;28;20029;-89
2021/05/29 02:19:36;;;;;;;18.50;15.05;;;18.90;80.70;;;;;;5036755;28;20025;-89
2021/05/29 02:22:02;;;;;;;21.88;14.95;;;18.90;80.80;;;;;;5037235;28;20029;-89
2021/05/29 02:24:28;;;;;;;21.00;15.75;;;18.90;80.80;;;;;;5037344;28;20025;-88
2021/05/29 02:26:54;;;;;;;21.02;15.80;;;18.90;80.90;;;;;;5036382;28;20020;-88
2021/05/29 02:29:19;;;;;;;19.13;15.30;;;18.90;81.20;;;;;;5004816;28;20501;-90
2021/05/29 02:31:45;;;;;;;20.98;15.18;;;18.90;81.00;;;;;;5031144;28;20486;-88
2021/05/29 02:34:11;;;;;;;18.40;14.90;;;18.90;80.90;;;;;;5028608;28;20036;-88
2021/05/29 02:36:38;;;;;;;18.35;15.85;;;19.00;80.90;;;;;;5040972;28;20021;-90
2021/05/29 02:39:06;;;;;;;18.42;16.27;;;19.00;80.90;;;;;;5038885;28;20028;-90
2021/05/29 02:41:32;;;;;;;;;;;19.00;80.70;;;;;;5032626;28;20494;-91
2021/05/29 02:43:58;;;;;;;20.90;16.42;;;19.00;80.50;;;;;;5036819;28;19912;-90
2021/05/29 02:46:23;;;;;;;21.17;15.93;;;18.90;81.00;;;;;;5036866;28;20025;-90
2021/05/29 02:48:49;;;;;;;18.50;16.50;;;19.00;80.80;;;;;;5037731;28;20025;-91
2021/05/29 02:51:15;;;;;;;23.17;15.93;;;19.00;80.90;;;;;;5037861;28;20036;-92
2021/05/29 02:53:42;;;;;;;18.80;15.90;;;19.00;80.70;;;;;;5037117;28;20435;-91
2021/05/29 02:56:08;;;;;;;21.15;16.85;;;19.00;80.60;;;;;;5038394;28;20029;-90
2021/05/29 02:58:34;;;;;;;20.15;16.08;;;19.00;80.80;;;;;;5047500;28;20022;-89
2021/05/29 03:01:00;;;;;;;24.33;16.73;;;19.10;80.70;;;;;;5029509;28;20037;-89
2021/05/29 03:03:26;;;;;;;18.65;16.27;;;19.20;80.20;;;;;;5041610;28;20021;-89
2021/05/29 03:05:52;;;;;;;19.98;15.80;;;19.20;79.90;;;;;;5026911;28;20036;-89
2021/05/29 03:08:20;;;;;;;17.15;15.35;;;19.20;79.80;;;;;;5043180;28;20018;-91
2021/05/29 03:10:47;;;;;;;18.40;16.45;;;19.20;79.90;;;;;;5036556;28;20099;-89
2021/05/29 03:13:13;;;;;;;20.88;15.48;;;19.20;79.70;;;;;;5036878;28;20426;-90
2021/05/29 03:15:39;;;;;;;18.23;16.15;;;19.20;79.70;;;;;;5021740;28;20486;-89
2021/05/29 03:18:06;;;;;;;18.10;16.20;;;19.20;79.50;;;;;;5039295;28;20386;-91
2021/05/29 03:20:34;;;;;;;21.63;15.55;;;19.20;79.50;;;;;;5023376;28;20033;-91
2021/05/29 03:23:01;;;;;;;17.38;14.27;;;19.20;79.50;;;;;;5037357;28;20041;-88
2021/05/29 03:25:31;;;;;;;18.63;16.73;;;19.30;79.50;;;;;;5004293;28;20065;-88
2021/05/29 03:27:56;;;;;;;22.33;16.30;;;19.30;79.20;;;;;;5038136;28;20461;-90
2021/05/29 03:30:28;;;;;;;17.73;15.85;;;19.30;79.30;;;;;;5038769;28;20026;-90
2021/05/29 03:32:56;;;;;;;20.08;15.60;;;19.40;79.20;;;;;;5024015;28;20072;-91
2021/05/29 03:35:22;;;;;;;20.92;16.50;;;19.50;79.40;;;;;;5043485;28;20040;-90
2021/05/29 03:37:48;;;;;;;19.77;16.10;;;19.60;78.80;;;;;;5048074;28;20080;-89
2021/05/29 03:40:16;;;;;;;19.85;15.00;;;19.60;78.30;;;;;;5057221;28;20024;-91
2021/05/29 03:42:43;;;;;;;18.70;15.68;;;19.70;78.40;;;;;;5051704;28;20075;-91
2021/05/29 03:45:14;;;;;;;19.35;16.25;;;19.80;78.20;;;;;;5033476;28;20120;-93
2021/05/29 03:47:41;;;;;;;20.55;16.38;;;19.90;77.80;;;;;;5031275;28;20029;-88
2021/05/29 03:50:08;;;;;;;20.70;16.83;;;20.10;77.40;;;;;;5027518;28;20018;-88
2021/05/29 03:52:34;;;;;;;;;;;20.10;76.70;;;;;;5029744;28;20495;-88
2021/05/29 03:55:00;;;;;;;22.35;17.25;;;20.20;76.80;;;;;;5038018;28;19911;-89
2021/05/29 03:57:26;;;;;;;23.27;16.90;;;20.10;76.30;;;;;;5039927;28;20105;-88
2021/05/29 03:59:52;;;;;;;23.45;16.92;;;20.20;76.30;;;;;;5038715;28;20045;-88
2021/05/29 04:02:18;;;;;;;19.92;17.15;;;20.20;76.40;;;;;;5039679;28;20088;-90
2021/05/29 04:04:44;;;;;;;24.17;16.75;;;20.30;76.10;;;;;;5032229;28;20025;-90
2021/05/29 04:07:10;;;;;;;24.17;17.85;;;20.30;75.90;;;;;;5054360;28;20052;-83
2021/05/29 04:09:35;;;;;;;27.70;18.80;;;20.30;76.10;;;;;;5059753;28;20017;-86
2021/05/29 04:12:03;;;;;;;24.25;18.13;;;20.20;75.80;;;;;;5059665;28;20045;-86
2021/05/29 04:14:29;;;;;;;28.90;18.90;;;20.30;75.60;;;;;;5043158;28;20018;-87
2021/05/29 04:16:55;;;;;;;21.48;18.80;;;20.30;75.80;;;;;;5039249;28;20161;-85
2021/05/29 04:19:22;;;;;;;23.27;18.38;;;20.50;75.40;;;;;;5039832;28;20018;-87
2021/05/29 04:21:48;;;;;;;28.52;18.90;;;20.80;74.70;;;;;;5045814;28;20052;-87
2021/05/29 04:24:13;;;;;;;22.48;18.13;;;20.80;74.30;;;;;;5021152;28;20025;-86
2021/05/29 04:26:41;;;;;;;22.40;19.05;;;20.90;73.70;;;;;;5038431;28;20420;-85
2021/05/29 04:29:06;;;;;;;27.08;19.23;;;21.10;73.80;;;;;;5037694;28;20022;-86
2021/05/29 04:31:32;;;;;;;22.33;19.50;;;21.30;72.70;;;;;;5036947;28;20103;-86
2021/05/29 04:33:58;;;;;;;23.55;19.55;;;21.40;72.80;;;;;;5037912;28;20064;-88
2021/05/29 04:36:24;;;;;;;24.42;20.05;;;21.50;72.20;;;;;;5036737;28;20068;-86
2021/05/29 04:38:50;;;;;;;25.55;20.17;;;21.70;72.00;;;;;;5036967;28;20025;-86
2021/05/29 04:41:16;;;;;;;29.73;19.90;;;21.80;71.20;;;;;;5036504;28;20013;-87
2021/05/29 04:43:43;;;;;;;23.52;20.10;;;21.90;70.40;;;;;;5017688;28;20026;-86
2021/05/29 04:46:08;;;;;;;28.75;19.85;;;21.90;70.00;;;;;;5036307;28;20649;-87
2021/05/29 04:48:37;;;;;;;25.42;20.33;;;21.90;70.20;;;;;;5037286;28;20121;-85
2021/05/29 04:51:14;;;;;;;23.15;19.52;;;21.90;69.90;;;;;;5037365;28;20025;-86
2021/05/29 04:53:42;;;;;;;26.42;20.05;;;21.90;70.10;;;;;;5028274;28;20335;-90
2021/05/29 04:56:08;;;;;;;24.67;19.60;;;22.00;70.50;;;;;;5042217;28;20034;-91
2021/05/29 04:58:36;;;;;;;28.73;19.50;;;22.00;70.20;;;;;;5038727;28;20026;-90
2021/05/29 05:01:03;;;;;;;27.38;19.35;;;21.90;70.60;;;;;;5020527;28;20022;-90
2021/05/29 05:03:28;;;;;;;39.03;24.50;;;22.00;70.40;;;;;;5020029;28;20029;-88
2021/05/29 05:05:54;;;;;;;31.80;19.48;;;22.00;70.10;;;;;;5036989;28;20105;-88
2021/05/29 05:08:20;;;;;;;30.38;19.90;;;22.20;70.10;;;;;;5038318;28;20029;-91
2021/05/29 05:10:46;;;;;;;23.92;18.75;;;22.50;69.80;;;;;;5017467;28;20372;-89
2021/05/29 05:13:12;;;;;;;24.42;19.90;;;22.60;68.50;;;;;;5012413;28;20133;-90
2021/05/29 05:15:38;;;;;;;24.77;20.15;;;22.80;67.50;;;;;;5038554;28;20079;-88
2021/05/29 05:18:07;;;;;;;30.90;18.75;;;23.20;67.20;;;;;;5037062;28;20152;-90
2021/05/29 05:20:34;;;;;;;28.67;20.55;;;23.60;66.00;;;;;;5037383;28;20033;-88
2021/05/29 05:22:59;;;;;;;25.42;21.48;;;24.00;64.40;;;;;;5024613;28;20467;-90
2021/05/29 05:25:27;;;;;;;27.75;19.27;;;24.20;63.30;;;;;;5037081;28;20022;-88
2021/05/29 05:27:53;;;;;;;22.00;19.27;;;24.10;63.00;;;;;;5024000;28;20030;-89
2021/05/29 05:30:20;;;;;;;23.58;21.10;;;24.90;61.90;;;;;;5038825;28;20045;-89
2021/05/29 05:32:46;;;;;;;25.60;19.48;;;25.90;59.00;;;;;;5020113;28;20176;-89
2021/05/29 05:35:15;;;;;;;24.15;18.90;;;26.60;57.40;;;;;;5037839;28;20061;-87
2021/05/29 05:37:42;;;;;;;20.45;18.20;;;26.60;56.20;;;;;;5047063;28;20022;-88
2021/05/29 05:40:08;;;;;;;31.15;18.77;;;26.70;55.50;;;;;;5053728;28;20024;-89
2021/05/29 05:42:35;;;;;;;25.10;18.58;;;26.80;57.60;;;;;;5058287;28;20037;-87
2021/05/29 05:45:03;;;;;;;25.25;19.30;;;26.70;55.40;;;;;;5044127;28;20052;-87
2021/05/29 05:47:29;;;;;;;25.42;20.08;;;26.60;55.30;;;;;;5036952;28;20057;-87
2021/05/29 05:49:57;;;;;;;28.50;17.88;;;26.70;59.10;;;;;;5042064;28;20021;-87
2021/05/29 05:52:23;;;;;;;20.73;18.40;;;26.80;55.40;;;;;;5041438;28;20040;-88
2021/05/29 05:54:49;;;;;;;23.98;17.85;;;26.80;54.60;;;;;;5043758;28;20638;-89
2021/05/29 05:57:15;;;;;;;27.50;17.73;;;26.80;54.30;;;;;;5039132;28;20079;-87
2021/05/29 05:59:42;;;;;;;25.65;19.02;;;26.90;54.30;;;;;;5039637;28;20045;-89
2021/05/29 06:02:08;;;;;;;21.00;18.73;;;26.80;54.40;;;;;;5022970;28;20053;-91
2021/05/29 06:04:34;;;;;;;26.38;19.58;;;26.50;54.00;;;;;;5039108;28;20017;-90
2021/05/29 06:07:00;;;;;;;26.83;20.05;;;26.10;54.80;;;;;;5048854;28;20045;-87
2021/05/29 06:09:28;;;;;;;23.85;18.73;;;25.90;55.00;;;;;;5043636;28;20031;-90
2021/05/29 06:11:54;;;;;;;27.60;21.77;;;25.90;55.20;;;;;;5040680;28;20033;-88
2021/05/29 06:19:49;;;;;;;27.05;19.38;;;25.00;56.70;;;;;;5039747;28;20035;-93
2021/05/29 06:22:15;;;;;;;27.35;20.65;;;25.00;57.10;;;;;;5034968;28;20112;-88
2021/05/29 06:24:42;;;;;;;26.50;19.05;;;24.70;57.40;;;;;;5058477;28;20021;-88
2021/05/29 06:27:08;;;;;;;26.08;18.55;;;24.30;57.90;;;;;;5037092;28;20096;-91
2021/05/29 06:29:34;;;;;;;25.27;19.80;;;24.00;59.20;;;;;;5028942;28;20033;-89
2021/05/29 06:32:00;;;;;;;28.17;20.95;;;23.70;59.70;;;;;;5037364;28;20482;-89
2021/05/29 06:34:28;;;;;;;22.73;18.90;;;23.50;60.70;;;;;;5036293;28;20112;-88
2021/05/29 06:36:53;;;;;;;23.25;18.30;;;23.50;61.10;;;;;;5036634;28;20041;-88
2021/05/29 06:39:22;;;;;;;20.60;17.00;;;23.20;61.10;;;;;;5037135;28;20031;-91
2021/05/29 06:41:48;;;;;;;24.85;19.08;;;23.10;62.10;;;;;;5040272;28;20085;-89
2021/05/29 06:44:14;;;;;;;24.13;18.02;;;23.10;62.00;;;;;;5041687;28;20022;-90
2021/05/29 06:46:40;;;;;;;23.33;18.30;;;23.10;62.50;;;;;;5041904;28;20048;-88
2021/05/29 06:49:07;;;;;;;21.30;17.98;;;23.00;62.50;;;;;;5048449;28;20024;-88
2021/05/29 06:54:57;;;;;;;32.42;19.23;;;22.70;62.90;;;;;;5055391;28;20020;-87
2021/05/29 06:59:38;;;;;;;28.25;21.65;;;22.20;64.90;;;;;;5051607;28;20056;-89
2021/05/29 07:02:04;;;;;;;26.10;17.42;;;21.90;65.60;;;;;;5050609;28;20021;-91
2021/05/29 07:04:31;;;;;;;24.40;18.27;;;21.70;66.40;;;;;;5047182;28;20058;-91
2021/05/29 07:06:57;;;;;;;;;;;21.60;68.00;;;;;;5045772;28;20029;-87
2021/05/29 07:09:24;;;;;;;21.27;16.60;;;21.50;67.00;;;;;;5042053;28;19971;-90
2021/05/29 07:11:50;;;;;;;;;;;21.40;68.60;;;;;;5039060;28;20482;-90
2021/05/29 07:14:16;;;;;;;24.25;18.58;;;21.20;68.40;;;;;;5037301;28;19909;-89
2021/05/29 07:16:43;;;;;;;22.88;17.70;;;20.90;71.10;;;;;;5036522;28;20474;-87
2021/05/29 07:19:09;;;;;;;;;;;20.80;72.50;;;;;;5035363;28;20036;-89
2021/05/29 07:21:36;;;;;;;28.02;20.75;;;20.70;71.10;;;;;;5036053;28;19910;-87
2021/05/29 07:24:03;;;;;;;26.23;20.63;;;20.50;73.00;;;;;;5033507;28;20101;-86
2021/05/29 07:26:29;;;;;;;33.40;21.40;;;20.30;76.30;;;;;;5035198;28;20029;-89
2021/05/29 07:28:55;;;;;;;34.78;25.48;;;20.10;76.80;;;;;;5035941;28;20048;-88
2021/05/29 07:31:21;;;;;;;32.90;22.63;;;19.70;78.40;;;;;;5034307;28;20482;-88
2021/05/29 07:33:50;;;;;;;30.58;23.55;;;19.30;81.20;;;;;;5017969;28;20041;-89
2021/05/29 07:36:18;;;;;;;30.48;23.10;;;19.00;83.10;;;;;;5034997;28;20097;-88
2021/05/29 07:38:45;;;;;;;26.35;20.80;;;18.80;85.20;;;;;;5036168;28;20029;-88
2021/05/29 07:41:11;;;;;;;24.73;21.08;;;18.70;85.60;;;;;;5035316;28;20056;-88
2021/05/29 07:43:38;;;;;;;33.83;23.40;;;18.50;87.50;;;;;;5026744;28;20026;-89
2021/05/29 07:46:05;;;;;;;25.88;21.70;;;18.40;89.00;;;;;;5007193;28;20053;-91
2021/05/29 07:48:33;;;;;;;25.73;20.37;;;18.50;89.50;;;;;;5040023;28;20021;-89
2021/05/29 07:51:05;;;;;;;21.50;16.35;;;18.50;90.00;;;;;;5020310;28;20303;-86
2021/05/29 07:53:40;;;;;;;17.85;15.40;;;18.40;90.00;;;;;;5011370;28;20022;-84
2021/05/29 07:56:09;;;;;;;21.10;15.52;;;18.30;90.00;;;;;;5040084;28;20031;-86
2021/05/29 07:58:36;;;;;;;23.13;14.55;;;18.20;90.40;;;;;;5014939;28;20029;-86
2021/05/29 08:01:03;;;;;;;16.13;13.13;;;18.10;90.50;;;;;;5022860;28;20017;-89
2021/05/29 08:03:31;;;;;;;20.67;14.03;;;18.00;90.40;;;;;;5036548;28;20093;-87
2021/05/29 08:06:02;;;;;;;21.85;15.38;;;17.90;90.50;;;;;;5019977;28;20026;-85
2021/05/29 08:08:28;;;;;;;22.13;15.35;;;17.80;90.90;;;;;;5036662;28;20029;-87
2021/05/29 08:11:00;;;;;;;20.95;15.20;;;17.70;91.10;;;;;;5036560;28;20068;-88
2021/05/29 08:13:27;;;;;;;22.30;14.93;;;17.60;91.40;;;;;;5016702;28;20045;-85
2021/05/29 08:15:53;;;;;;;22.95;16.30;;;17.40;91.90;;;;;;5034378;28;20025;-87
2021/05/29 08:18:20;;;;;;;21.73;17.20;;;17.20;92.70;;;;;;5019435;28;20398;-88
2021/05/29 08:20:50;;;;;;;25.67;18.35;;;17.20;93.40;;;;;;5038914;28;20029;-88
2021/05/29 08:23:16;;;;;;;26.40;19.77;;;17.20;94.00;;;;;;5038879;28;20033;-87
2021/05/29 08:25:42;;;;;;;25.38;19.38;;;17.10;94.50;;;;;;5042647;28;20021;-89
2021/05/29 08:28:08;;;;;;;25.58;20.80;;;17.10;94.90;;;;;;5044362;28;20026;-91
2021/05/29 08:30:34;;;;;;;30.95;20.63;;;17.20;95.20;;;;;;5045420;28;20032;-90
2021/05/29 08:33:00;;;;;;;24.40;17.60;;;17.20;95.40;;;;;;5055577;28;20038;-88
2021/05/29 08:35:27;;;;;;;17.63;14.32;;;17.10;95.20;;;;;;5047335;28;20032;-87
2021/05/29 08:37:52;;;;;;;19.95;13.18;;;16.90;94.80;;;;;;5039572;28;20025;-88
2021/05/29 08:40:20;;;;;;;15.68;11.35;;;16.80;94.40;;;;;;5051058;28;20017;-84
2021/05/29 08:42:47;;;;;;;20.35;13.10;;;16.70;94.30;;;;;;5042415;28;20017;-88
2021/05/29 08:45:15;;;;;;;16.52;13.23;;;16.70;94.20;;;;;;5053935;28;20070;-87
2021/05/29 08:47:41;;;;;;;18.35;15.48;;;16.70;94.60;;;;;;5038572;28;20048;-86
2021/05/29 08:50:09;;;;;;;15.65;13.88;;;16.60;95.00;;;;;;5032712;28;20032;-90
2021/05/29 08:52:37;;;;;;;22.60;14.50;;;16.60;95.20;;;;;;5031429;28;20045;-90
2021/05/29 08:55:18;;;;;;;21.33;15.80;;;16.60;95.50;;;;;;5043883;28;20035;-87
2021/05/29 08:57:46;;;;;;;21.17;14.95;;;16.70;95.70;;;;;;5039232;28;20038;-86
2021/05/29 09:00:16;;;;;;;17.33;14.25;;;16.80;95.80;;;;;;5031558;28;20568;-89
2021/05/29 09:03:07;;;;;;;17.92;13.65;;;16.80;95.70;;;;;;5042664;28;20049;-91
2021/05/29 09:05:39;;;;;;;16.48;14.45;;;16.80;95.40;;;;;;5023416;28;20029;-87
2021/05/29 09:08:10;;;;;;;17.77;15.43;;;16.80;95.70;;;;;;5039659;28;20053;-89
2021/05/29 09:10:39;;;;;;;17.67;13.70;;;16.80;95.90;;;;;;5029473;28;20089;-90
2021/05/29 09:13:09;;;;;;;18.08;14.02;;;16.80;95.80;;;;;;5021614;28;20041;-88
2021/05/29 09:15:53;;;;;;;17.63;13.80;;;16.80;95.80;;;;;;5038292;28;20024;-90
2021/05/29 09:18:34;;;;;;;17.08;11.88;;;16.80;95.60;;;;;;5038655;28;20502;-89
2021/05/29 09:21:30;;;;;;;15.05;12.15;;;16.80;95.30;;;;;;5041940;28;20021;-87
2021/05/29 09:24:03;;;;;;;13.30;11.18;;;16.80;94.80;;;;;;5039241;28;20017;-88
2021/05/29 09:26:46;;;;;;;12.38;10.65;;;16.80;94.90;;;;;;5037677;28;20096;-86
2021/05/29 09:29:21;;;;;;;12.95;11.68;;;16.80;94.50;;;;;;5037174;28;20018;-89
2021/05/29 09:31:57;;;;;;;13.70;12.30;;;16.90;94.60;;;;;;5036768;28;20037;-86
2021/05/29 09:34:35;;;;;;;12.05;10.85;;;16.90;94.70;;;;;;5029050;28;20018;-87
2021/05/29 09:37:15;;;;;;;10.45;9.45;;;17.00;94.70;;;;;;5036661;28;20113;-88
2021/05/29 09:40:04;;;;;;;11.20;9.88;;;17.10;94.30;;;;;;5043724;28;20045;-87
2021/05/29 09:42:33;;;;;;;11.02;9.02;;;17.10;94.10;;;;;;5014746;28;20030;-91
2021/05/29 09:45:26;;;;;;;12.98;10.35;;;17.10;93.60;;;;;;5030340;28;20508;-90
2021/05/29 09:48:24;;;;;;;12.27;8.82;;;17.20;93.50;;;;;;5047552;28;20036;-86
2021/05/29 09:51:01;;;;;;;11.77;10.45;;;17.40;93.50;;;;;;5030225;28;20033;-89
2021/05/29 09:53:46;;;;;;;11.52;10.35;;;17.50;93.10;;;;;;5046961;28;20057;-87
2021/05/29 09:56:45;;;;;;;14.52;10.15;;;17.50;92.60;;;;;;5018480;28;20026;-88
2021/05/29 09:59:20;;;;;;;16.23;10.40;;;17.70;92.40;;;;;;4999340;28;20068;-87
2021/05/29 10:01:51;;;;;;;14.77;10.38;;;17.70;91.90;;;;;;5040269;28;20014;-87
2021/05/29 10:04:52;;;;;;;11.60;9.68;;;17.80;91.70;;;;;;5039315;28;20025;-88
2021/05/29 10:08:04;;;;;;;12.13;6.90;;;17.80;91.70;;;;;;5046003;28;20029;-92
2021/05/29 10:10:33;;;;;;;8.52;6.72;;;17.90;90.50;;;;;;5030913;28;20034;-85
2021/05/29 10:13:01;;;;;;;9.05;7.63;;;17.90;90.10;;;;;;5043759;28;20072;-85
2021/05/29 10:15:27;;;;;;;9.32;6.57;;;17.90;90.20;;;;;;5037127;28;20025;-88
2021/05/29 10:17:57;;;;;;;9.13;6.53;;;18.00;89.10;;;;;;5036360;28;20051;-87
2021/05/29 10:20:23;;;;;;;8.55;5.93;;;18.10;88.80;;;;;;5034949;28;20481;-86
2021/05/29 10:22:50;;;;;;;11.57;6.72;;;18.20;87.70;;;;;;5017839;28;20030;-85
2021/05/29 10:25:20;;;;;;;5.70;5.10;;;18.20;87.40;;;;;;5035119;28;20133;-86
2021/05/29 10:27:51;;;;;;;8.13;6.22;;;18.20;86.00;;;;;;5018147;28;20486;-89
2021/05/29 10:30:27;;;;;;;8.85;6.35;;;18.10;87.20;;;;;;5040690;28;20029;-88
2021/05/29 10:33:12;;;;;;;10.50;6.80;;;18.10;87.50;;;;;;5024430;28;20030;-87
2021/05/29 10:35:39;;;;;;;7.80;6.50;;;18.10;87.20;;;;;;5035586;28;20049;-84
2021/05/29 10:38:09;;;;;;;7.53;5.82;;;18.00;86.60;;;;;;5017083;28;20428;-85
2021/05/29 10:40:43;;;;;;;8.30;6.68;;;18.00;86.10;;;;;;5036196;28;20095;-89
2021/05/29 10:43:20;;;;;;;8.45;7.45;;;17.80;86.50;;;;;;5035319;28;20033;-87
2021/05/29 10:45:54;;;;;;;10.15;6.88;;;17.80;87.40;;;;;;5041830;28;20022;-91
2021/05/29 10:48:22;;;;;;;7.72;6.78;;;17.70;87.00;;;;;;5026284;28;20028;-90
2021/05/29 10:51:10;;;;;;;9.50;6.25;;;17.60;87.40;;;;;;5034379;28;20036;-90
2021/05/29 10:53:49;;;;;;;8.30;6.20;;;17.60;88.00;;;;;;5048489;28;20029;-93
2021/05/29 10:56:39;;;;;;;6.60;5.97;;;17.60;87.10;;;;;;5028991;28;20045;-92
2021/05/29 10:59:17;;;;;;;6.32;5.57;;;17.70;86.80;;;;;;4995888;28;20042;-93
2021/05/29 11:01:44;;;;;;;8.20;6.13;;;17.60;85.80;;;;;;4995079;28;20042;-90
2021/05/29 11:04:23;;;;;;;8.05;6.38;;;17.60;86.30;;;;;;4983615;28;20440;-87
2021/05/29 11:06:59;;;;;;;7.25;6.55;;;17.60;86.30;;;;;;4971911;28;20055;-86
2021/05/29 11:09:26;;;;;;;7.50;5.53;;;17.50;85.90;;;;;;4962146;28;20027;-89
2021/05/29 11:11:57;;;;;;;8.10;5.93;;;17.50;85.80;;;;;;4975228;28;20043;-89
2021/05/29 11:14:28;;;;;;;6.35;5.75;;;17.40;85.40;;;;;;4981788;28;20030;-88
2021/05/29 11:16:54;;;;;;;9.57;7.00;;;17.30;85.80;;;;;;4981846;28;20051;-88
2021/05/29 11:19:26;;;;;;;6.60;5.93;;;17.20;86.20;;;;;;4979869;28;20093;-88
2021/05/29 11:22:10;;;;;;;8.88;6.03;;;17.10;86.60;;;;;;4994013;28;20041;-88
2021/05/29 11:24:41;;;;;;;6.20;5.60;;;17.00;86.30;;;;;;4979857;28;20023;-89
2021/05/29 11:27:15;;;;;;;9.18;6.30;;;16.90;85.90;;;;;;4979906;28;20058;-87
2021/05/29 11:30:00;;;;;;;9.02;5.43;;;16.80;86.10;;;;;;4976185;28;20392;-89
2021/05/29 11:33:03;;;;;;;7.82;5.65;;;16.70;86.60;;;;;;4993052;28;20073;-92
2021/05/29 11:35:43;;;;;;;9.18;6.25;;;16.60;86.40;;;;;;4989807;28;20038;-90
2021/05/29 11:41:00;;;;;;;9.55;6.28;;;16.50;86.60;;;;;;5019260;28;20018;-88
2021/05/29 11:43:36;;;;;;;11.32;6.13;;;16.50;86.50;;;;;;5013980;28;20111;-86
2021/05/29 11:46:09;;;;;;;8.48;6.57;;;16.50;87.00;;;;;;5034653;28;20022;-89
2021/05/29 11:49:03;;;;;;;13.60;6.82;;;16.30;87.90;;;;;;5017285;28;20061;-90
2021/05/29 11:51:39;;;;;;;9.60;6.10;;;16.10;89.20;;;;;;5018362;28;20037;-91
2021/05/29 11:54:17;;;;;;;9.95;5.75;;;16.00;89.50;;;;;;5030639;28;20072;-88
2021/05/29 11:56:45;;;;;;;10.18;5.30;;;15.80;89.90;;;;;;4979787;28;20045;-90
2021/05/29 11:59:18;;;;;;;8.98;5.82;;;15.80;89.90;;;;;;5025398;28;20154;-86
2021/05/29 12:01:48;;;;;;;9.95;6.90;;;15.90;89.20;;;;;;5023051;28;20101;-88
2021/05/29 12:04:16;;;;;;;15.90;6.18;;;15.80;89.20;;;;;;5018640;28;20058;-88
2021/05/29 12:07:03;;;;;;;9.27;5.03;;;15.90;89.80;;;;;;5040398;28;20077;-90
2021/05/29 12:09:30;;;;;;;8.55;4.68;;;16.00;88.60;;;;;;5040899;28;20367;-87
2021/05/29 12:12:07;;;;;;;6.60;4.72;;;16.00;87.30;;;;;;5049748;28;20101;-89
2021/05/29 12:14:40;;;;;;;7.85;6.10;;;15.90;87.80;;;;;;5045459;28;20033;-88
2021/05/29 12:17:07;;;;;;;6.70;5.30;;;15.70;88.90;;;;;;5059789;28;20029;-91
2021/05/29 12:19:41;;;;;;;10.23;5.47;;;15.60;88.40;;;;;;5055990;28;20072;-93
2021/05/29 12:22:17;;;;;;;8.07;5.75;;;15.30;89.60;;;;;;5049119;28;20029;-93
2021/05/29 12:25:11;;;;;;;10.27;7.70;;;15.10;90.00;;;;;;5053265;28;20113;-95
2021/05/29 12:27:43;;;;;;;7.90;5.43;;;15.00;90.30;;;;;;4970268;28;20156;-86
2021/05/29 12:30:14;;;;;;;8.07;5.95;;;14.90;90.80;;;;;;4979776;28;20137;-87
2021/05/29 12:32:42;;;;;;;5.95;4.95;;;14.70;91.10;;;;;;4997287;28;20089;-88
2021/05/29 12:35:10;;;;;;;8.43;6.65;;;14.50;91.40;;;;;;4997442;28;20141;-86
2021/05/29 12:37:37;;;;;;;10.68;7.65;;;14.30;92.20;;;;;;4997450;28;20057;-88
2021/05/29 12:40:14;;;;;;;10.90;6.57;;;14.10;92.90;;;;;;4996783;28;20038;-87
2021/05/29 12:42:49;;;;;;;7.28;6.15;;;14.00;93.30;;;;;;4993657;28;20503;-86
2021/05/29 12:45:23;;;;;;;8.60;7.25;;;13.80;93.90;;;;;;4989046;28;20057;-89
2021/05/29 12:47:52;;;;;;;9.05;8.07;;;13.70;94.50;;;;;;4991325;28;20086;-85
2021/05/29 12:50:18;;;;;;;13.35;8.95;;;13.70;94.80;;;;;;4991147;28;20087;-87
2021/05/29 12:52:45;;;;;;;12.90;8.23;;;13.70;95.10;;;;;;4981181;28;20039;-87
2021/05/29 12:55:26;;;;;;;8.93;6.50;;;13.70;95.40;;;;;;4984764;28;20046;-86
2021/05/29 12:57:53;;;;;;;11.00;9.15;;;13.60;95.30;;;;;;4984597;28;20054;-91
2021/05/29 13:11:41;;;;;;;8.63;7.82;;;13.30;97.40;;;;;;5050079;28;20025;-90